Bookmark and Share
Track history (hours):
 

Kevleen K

More information available from US FCC via Universal Licensing System and Coast Guard Vessel Documentation Center.

Last reported at 2013-Jun-06 00:28 UTC. Time now 2014-Apr-20 00:41 UTC.
Position N 49°01' W 126°60'.
Warning: this ship's position is months out of date.

Length 31 m; draft 4.3 m.

MMSI: 367151060.

NotesDate/timePositionNaut miles runAvg speedWind from/ knotsBaromVisibWave heightAir tempDewpointWater temp
2013-Jun-06 00:28N 49°01' W 126°60'14 6.9
2013-Jun-05 22:25N 48°54' W 126°40'7 6.9
2013-Jun-05 21:23N 48°51' W 126°31'15 7.4
2013-Jun-05 19:19N 48°44' W 126°10'6 7.8
2013-Jun-05 18:33N 48°42' W 126°02'8 8.0
2013-Jun-05 17:33N 48°38' W 125°51'8 8.0
2013-Jun-05 16:34N 48°34' W 125°40'9 8.4
2013-Jun-05 15:30N 48°33' W 125°27'6910.0
2013-Jun-05 08:32N 48°16' W 123°46'9 9.0
2013-Jun-05 07:33N 48°15' W 123°33'8 8.4
2013-Jun-05 06:33N 48°14' W 123°20'18 9.3
2013-Jun-05 04:33N 48°12' W 122°53'10 9.8
2013-Jun-05 03:33N 48°07' W 122°40'1110.8
2013-Jun-05 02:33N 47°57' W 122°33'10 9.6
2013-Jun-05 01:33N 47°49' W 122°27'8 8.3
2013-Jun-05 00:33N 47°41' W 122°25'0 0.0
2013-Jun-04 23:33N 47°41' W 122°25'0 0.0
2013-Jun-04 22:33N 47°41' W 122°25'0 0.1
2013-Jun-04 21:33N 47°41' W 122°25'0 0.1
2013-Jun-04 20:33N 47°41' W 122°25'0 0.3
2013-Jun-04 19:33N 47°40' W 122°25'1 0.9
2013-Jun-04 18:33N 47°40' W 122°23'0 0.0
2013-Jun-04 17:33N 47°40' W 122°23'0 0.0
2013-Jun-04 16:33N 47°40' W 122°23'0 0.0
2013-Jun-04 15:33N 47°40' W 122°23'0 0.0
2013-Jun-04 14:33N 47°40' W 122°23'0 0.0
2013-Jun-04 13:33N 47°40' W 122°23'0 0.0
2013-Jun-04 12:33N 47°40' W 122°23'0 0.0
2013-Jun-04 11:33N 47°40' W 122°23'0 0.0
2013-Jun-04 10:33N 47°40' W 122°23'0 0.0
2013-Jun-04 09:33N 47°40' W 122°23'0 0.0
2013-Jun-04 08:33N 47°40' W 122°23'0 0.0
2013-Jun-04 07:33N 47°40' W 122°23'0 0.0
2013-Jun-04 06:33N 47°40' W 122°23'0 0.0
2013-Jun-04 05:33N 47°40' W 122°23'0 0.0
2013-Jun-04 04:31N 47°40' W 122°23'1 0.6
2013-Jun-04 03:33N 47°39' W 122°23'0 0.4
2013-Jun-04 02:33N 47°40' W 122°23'0 0.0
2013-Jun-04 01:33N 47°40' W 122°23'0 0.0
2013-Jun-04 00:33N 47°40' W 122°23'0 0.3
2013-Jun-03 23:33N 47°40' W 122°23'0 0.0
2013-Jun-03 22:33N 47°40' W 122°23'0 0.0
2013-Jun-03 21:33N 47°40' W 122°23'0 0.0
2013-Jun-03 20:33N 47°40' W 122°23'0 0.0
2013-Jun-03 19:33N 47°40' W 122°23'0 0.0
2013-Jun-03 18:33N 47°40' W 122°23'0 0.0
2013-Jun-03 17:33N 47°40' W 122°23'0 0.0
2013-Jun-03 16:33N 47°40' W 122°23'0 0.0
2013-Jun-03 15:33N 47°40' W 122°23'0 0.0
2013-Jun-03 14:33N 47°40' W 122°23'0 0.0
2013-Jun-03 13:33N 47°40' W 122°23'0 0.0
2013-Jun-03 12:33N 47°40' W 122°23'0 0.0
2013-Jun-03 11:33N 47°40' W 122°23'0 0.0
2013-Jun-03 10:33N 47°40' W 122°23'0 0.0
2013-Jun-03 09:33N 47°40' W 122°23'0 0.0
2013-Jun-03 08:33N 47°40' W 122°23'0 0.0
2013-Jun-03 07:33N 47°40' W 122°23'0 0.0
2013-Jun-03 06:33N 47°40' W 122°23'0 0.0
2013-Jun-03 05:33N 47°40' W 122°23'0 0.0
2013-Jun-03 04:33N 47°40' W 122°23'0 0.0
2013-Jun-03 03:33N 47°40' W 122°23'0 0.0
2013-Jun-03 02:34N 47°40' W 122°23'0 0.0
2013-Jun-03 01:33N 47°40' W 122°23'0 0.0
2013-Jun-03 00:33N 47°40' W 122°23'0 0.0
2013-Jun-02 23:33N 47°40' W 122°23'0 0.0
2013-Jun-02 22:33N 47°40' W 122°23'  

Dump ship's entire track history

sailing weather and tide predictions

Kevleen K — WDD4913 — position and weather